Airfield :
LOGIN :

Register | Disclaimer

   EN    FR    IT 

 










Legend :    VFR   Marginal VFR   IFR   Intensive IFR   Very Intensive IFR
Visi :
Ceiling :
>= 8 km
>= 3000ft
5 to 8 km
1000 to 3000 ft
1500m to 5 km
500 to 1000 ft
800 to 1500m
200 to 500 ft
< 800m
< 200 ft
Symbols :   Thunderstorms  Fog  Heavy snow  Heavy precipitations  Wind > 20 kt
SIGMETs :     Misc.  Thunderstorms  Icing  Turbulence  Mountain Waves  Volcanic Ashes






- Airport Elevation : 124 ft
- IATA code : RNS


LFRN - Rennes

CURRENT METAR :
  • 170200Z AUTO 12005KT 7000 NSC 09/09 Q1017 TEMPO 0400 FG VV///

EXPIRED METARs :
  • 170130Z AUTO 11005KT 7000 NSC 10/08 Q1017 TEMPO 0400 FG VV///
  • 170100Z AUTO 10005KT 7000 NSC 10/09 Q1017 TEMPO 0400 FG VV///
  • 170030Z AUTO 11005KT 7000 NSC 10/09 Q1017 TEMPO 0400 FG VV///
  • 170000Z AUTO 12005KT 090V150 7000 NSC 10/09 Q1017 BECMG 3000 BR
  • 162330Z AUTO 11006KT 7000 NSC 11/09 Q1018 TEMPO 0300 FG VV///

TAF AMD TAF LFRN
Valid from the 17 at 02:00 until the 18 at 00:00 UTC


170206Z 1702/1724 VRB05KT 6000 NSC
BECMG 1702/1704 3000 BR
TEMPO 1704/1708 0400 FG VV///
BECMG 1708/1710 CAVOK
ATIS : +33 2 99 67 72 50



MET'MAP, your aeronautical weather chart ! - Copyright ORBIFLY December 2007 - Disclaimer

ORBIFLY MET'MAP TEAM :

Programming & Development : Alexandra Zaïnal
Concept & original design : Baudouin d'Aumeries
Assistance for programming : Marc-Olivier Méhu
Technical & hardware support : Manuel Goepfert

Contact : metmap@orbifly.com




SOURCES & CREDITS :

   NOAA